createdAt,value
2023-11-07T00:00:37.692Z,71.09
2023-11-07T00:01:37.724Z,70.90
2023-11-07T00:02:37.823Z,71.19
2023-11-07T00:03:37.942Z,71.19
2023-11-07T00:04:37.712Z,71.37
2023-11-07T00:05:37.764Z,71.28
2023-11-07T00:06:37.696Z,71.37
2023-11-07T00:07:37.873Z,71.28
2023-11-07T00:08:37.797Z,71.37
2023-11-07T00:09:37.783Z,71.28
2023-11-07T00:10:37.705Z,71.37
2023-11-07T00:11:37.844Z,71.57
2023-11-07T00:12:37.770Z,71.47
2023-11-07T00:13:37.720Z,71.09
2023-11-07T00:14:37.708Z,71.57
2023-11-07T00:15:37.731Z,71.09
2023-11-07T00:16:37.900Z,71.57
2023-11-07T00:17:37.780Z,71.19
2023-11-07T00:18:37.847Z,71.37
2023-11-07T00:19:37.633Z,71.37
2023-11-07T00:20:37.654Z,71.19
2023-11-07T00:21:37.627Z,71.09
2023-11-07T00:22:37.734Z,71.19
2023-11-07T00:23:37.641Z,71.09
2023-11-07T00:24:37.617Z,71.19
2023-11-07T00:25:37.611Z,71.19
2023-11-07T00:26:37.664Z,71.28
2023-11-07T00:27:37.627Z,71.76
2023-11-07T00:28:37.618Z,71.28
2023-11-07T00:29:37.609Z,71.37
2023-11-07T00:30:37.604Z,71.37
2023-11-07T00:31:37.588Z,71.37
2023-11-07T00:32:37.800Z,71.76
2023-11-07T00:33:37.717Z,71.37
2023-11-07T00:34:37.687Z,71.76
2023-11-07T00:35:37.607Z,71.66
2023-11-07T00:36:37.565Z,71.76
2023-11-07T00:37:37.574Z,71.37
2023-11-07T00:38:37.597Z,71.76
2023-11-07T00:39:37.717Z,71.19
2023-11-07T00:40:37.583Z,71.37
2023-11-07T00:41:37.564Z,71.19
2023-11-07T00:42:37.537Z,71.09
2023-11-07T00:43:37.619Z,71.09
2023-11-07T00:44:37.555Z,71.19
2023-11-07T00:45:37.536Z,71.09
2023-11-07T00:46:37.529Z,71.57
2023-11-07T00:47:37.840Z,71.47
2023-11-07T00:48:37.631Z,71.09
2023-11-07T00:49:37.532Z,71.47
2023-11-07T00:50:37.540Z,71.28
2023-11-07T00:51:37.516Z,71.19
2023-11-07T00:52:37.513Z,71.47
2023-11-07T00:53:37.560Z,71.19
2023-11-07T00:54:37.502Z,71.19
2023-11-07T00:55:37.499Z,71.66
2023-11-07T00:56:37.548Z,71.66
2023-11-07T00:57:37.502Z,71.57
2023-11-07T00:58:37.521Z,71.47
2023-11-07T00:59:37.637Z,71.47
2023-11-07T01:00:37.489Z,71.66
2023-11-07T01:01:37.500Z,71.47
2023-11-07T01:02:37.556Z,71.86
2023-11-07T01:03:37.609Z,71.47
2023-11-07T01:04:37.530Z,71.47
2023-11-07T01:05:37.537Z,71.57
2023-11-07T01:06:37.566Z,71.47
2023-11-07T01:07:37.459Z,71.57
2023-11-07T01:08:37.508Z,71.47
2023-11-07T01:09:37.452Z,71.37
2023-11-07T01:10:37.451Z,71.66
2023-11-07T01:11:37.504Z,71.37
2023-11-07T01:12:37.443Z,71.47
2023-11-07T01:13:37.449Z,71.37
2023-11-07T01:14:37.471Z,71.37
2023-11-07T01:15:37.458Z,71.37
2023-11-07T01:16:37.444Z,71.37
2023-11-07T01:17:37.458Z,71.47
2023-11-07T01:18:37.513Z,71.37
2023-11-07T01:19:37.415Z,71.37
2023-11-07T01:20:37.428Z,71.37
2023-11-07T01:21:37.405Z,71.37
2023-11-07T01:22:37.427Z,71.57
2023-11-07T01:23:37.417Z,71.37
2023-11-07T01:24:37.413Z,71.47
2023-11-07T01:25:37.390Z,71.37
2023-11-07T01:26:37.452Z,71.28
2023-11-07T01:27:37.379Z,71.37
2023-11-07T01:28:37.389Z,71.19
2023-11-07T01:29:37.428Z,71.19
2023-11-07T01:30:37.389Z,71.28
2023-11-07T01:31:37.392Z,71.37
2023-11-07T01:32:37.523Z,71.28
2023-11-07T01:33:37.452Z,71.28
2023-11-07T01:34:37.442Z,71.19
2023-11-07T01:35:37.387Z,71.37
2023-11-07T01:36:37.406Z,71.28
2023-11-07T01:37:37.349Z,71.28
2023-11-07T01:38:37.380Z,71.28
2023-11-07T01:39:37.346Z,71.19
2023-11-07T01:40:37.344Z,71.28
2023-11-07T01:41:37.375Z,71.28
2023-11-07T01:42:37.333Z,71.37
2023-11-07T01:43:37.325Z,71.28
2023-11-07T01:44:37.343Z,71.37
2023-11-07T01:45:37.326Z,71.28
2023-11-07T01:46:37.322Z,71.28
2023-11-07T01:47:37.370Z,71.37
2023-11-07T01:48:37.504Z,71.47
2023-11-07T01:49:37.309Z,71.28
2023-11-07T01:50:37.367Z,71.57
2023-11-07T01:51:37.299Z,71.37
2023-11-07T01:52:37.296Z,71.37
2023-11-07T01:53:37.290Z,71.86
2023-11-07T01:54:37.289Z,72.05
2023-11-07T01:55:37.295Z,71.76
2023-11-07T01:56:37.306Z,71.86
2023-11-07T01:57:37.279Z,71.95
2023-11-07T01:58:37.283Z,71.95
2023-11-07T01:59:37.282Z,71.95
2023-11-07T02:00:37.263Z,71.95
2023-11-07T02:01:37.275Z,71.47
2023-11-07T02:02:37.314Z,71.95
2023-11-07T02:03:37.345Z,71.95
2023-11-07T02:04:37.336Z,71.86
2023-11-07T02:05:37.273Z,71.86
2023-11-07T02:06:37.249Z,71.86
2023-11-07T02:07:37.259Z,71.76
2023-11-07T02:08:37.288Z,71.76
2023-11-07T02:09:37.240Z,71.66
2023-11-07T02:10:37.230Z,71.95
2023-11-07T02:11:37.263Z,71.66
2023-11-07T02:12:37.239Z,71.66
2023-11-07T02:13:37.250Z,71.76
2023-11-07T02:14:37.308Z,71.66
2023-11-07T02:15:37.213Z,71.76
2023-11-07T02:16:37.223Z,71.66
2023-11-07T02:17:37.266Z,71.95
2023-11-07T02:18:37.293Z,71.66
2023-11-07T02:19:37.244Z,71.76
2023-11-07T02:20:37.208Z,71.66
2023-11-07T02:21:37.193Z,71.86
2023-11-07T02:22:37.200Z,71.76
2023-11-07T02:23:37.197Z,71.95
2023-11-07T02:24:37.270Z,71.66
2023-11-07T02:25:37.181Z,71.95
2023-11-07T02:26:37.180Z,71.95
2023-11-07T02:27:37.171Z,71.76
2023-11-07T02:28:37.192Z,71.95
2023-11-07T02:29:37.215Z,71.66
2023-11-07T02:30:37.157Z,71.66
2023-11-07T02:31:37.151Z,71.66
2023-11-07T02:32:37.241Z,71.66
2023-11-07T02:33:37.290Z,71.66
2023-11-07T02:34:37.146Z,71.76
2023-11-07T02:35:37.166Z,71.76
2023-11-07T02:36:37.142Z,71.66
2023-11-07T02:37:37.132Z,71.76
2023-11-07T02:38:37.169Z,71.76
2023-11-07T02:39:37.136Z,71.86
2023-11-07T02:40:37.127Z,71.76
2023-11-07T02:41:37.154Z,71.76
2023-11-07T02:42:37.115Z,71.66
2023-11-07T02:43:37.116Z,71.66
2023-11-07T02:44:37.120Z,71.76
2023-11-07T02:45:37.128Z,71.66
2023-11-07T02:46:37.101Z,71.86
2023-11-07T02:47:41.948Z,71.86
2023-11-07T02:48:37.172Z,71.86
2023-11-07T02:49:37.110Z,71.57
2023-11-07T02:50:37.131Z,71.57
2023-11-07T02:51:37.196Z,71.57
2023-11-07T02:52:37.082Z,71.86
2023-11-07T02:53:37.140Z,71.57
2023-11-07T02:54:37.081Z,71.86
2023-11-07T02:55:37.079Z,71.57
2023-11-07T02:56:37.187Z,71.57
2023-11-07T02:57:37.108Z,71.57
2023-11-07T02:58:37.063Z,71.66
2023-11-07T02:59:37.075Z,71.57
2023-11-07T03:00:37.049Z,71.66
2023-11-07T03:01:37.045Z,71.76
2023-11-07T03:02:37.093Z,71.57
2023-11-07T03:03:37.124Z,71.66
2023-11-07T03:04:37.038Z,71.86
2023-11-07T03:05:37.167Z,71.86
2023-11-07T03:06:37.150Z,71.66
2023-11-07T03:07:37.051Z,71.76
2023-11-07T03:08:37.039Z,72.14
2023-11-07T03:09:37.024Z,71.76
2023-11-07T03:10:37.014Z,71.66
2023-11-07T03:11:37.052Z,72.14
2023-11-07T03:12:37.011Z,71.86
2023-11-07T03:13:37.001Z,71.86
2023-11-07T03:14:37.014Z,71.86
2023-11-07T03:15:37.005Z,71.86
2023-11-07T03:16:37.002Z,71.76
2023-11-07T03:17:37.164Z,71.86
2023-11-07T03:18:37.069Z,71.86
2023-11-07T03:19:36.990Z,71.76
2023-11-07T03:20:36.987Z,71.76
2023-11-07T03:21:36.988Z,71.76
2023-11-07T03:22:37.012Z,71.86
2023-11-07T03:23:37.032Z,71.86
2023-11-07T03:24:36.977Z,71.76
2023-11-07T03:25:36.991Z,71.76
2023-11-07T03:26:36.981Z,71.66
2023-11-07T03:27:36.990Z,71.86
2023-11-07T03:28:36.958Z,71.95
2023-11-07T03:29:36.970Z,71.86
2023-11-07T03:30:36.943Z,71.86
2023-11-07T03:31:36.948Z,71.76
2023-11-07T03:32:36.977Z,71.76
2023-11-07T03:33:37.065Z,71.76
2023-11-07T03:34:36.926Z,72.05
2023-11-07T03:35:36.954Z,71.86
2023-11-07T03:36:36.939Z,72.05
2023-11-07T03:37:36.932Z,71.86
2023-11-07T03:38:36.943Z,71.86
2023-11-07T03:39:36.945Z,71.76
2023-11-07T03:40:36.904Z,71.47
2023-11-07T03:41:36.935Z,71.95
2023-11-07T03:42:36.911Z,71.86
2023-11-07T03:43:36.898Z,71.95
2023-11-07T03:44:36.939Z,71.95
2023-11-07T03:45:36.918Z,71.66
2023-11-07T03:46:36.897Z,71.95
2023-11-07T03:47:36.956Z,72.14
2023-11-07T03:48:36.998Z,71.95
2023-11-07T03:49:36.871Z,71.95
2023-11-07T03:50:36.937Z,71.86
2023-11-07T03:51:36.875Z,71.95
2023-11-07T03:52:36.870Z,72.14
2023-11-07T03:53:36.879Z,71.66
2023-11-07T03:54:36.868Z,71.95
2023-11-07T03:55:36.897Z,72.14
2023-11-07T03:56:36.880Z,72.14
2023-11-07T03:57:36.856Z,72.14
2023-11-07T03:58:36.848Z,72.14
2023-11-07T03:59:36.886Z,72.14
2023-11-07T04:00:36.847Z,72.14
2023-11-07T04:01:36.840Z,72.14
2023-11-07T04:02:36.872Z,72.14
2023-11-07T04:03:36.953Z,72.14
2023-11-07T04:04:36.824Z,72.14
2023-11-07T04:05:36.954Z,72.33
2023-11-07T04:06:36.829Z,72.33
2023-11-07T04:07:36.810Z,71.95
2023-11-07T04:08:36.846Z,72.53
2023-11-07T04:09:36.808Z,72.53
2023-11-07T04:10:36.807Z,72.24
2023-11-07T04:11:36.882Z,72.53
2023-11-07T04:12:36.796Z,72.33
2023-11-07T04:13:36.790Z,72.14
2023-11-07T04:14:36.807Z,72.24
2023-11-07T04:15:36.795Z,72.53
2023-11-07T04:16:36.781Z,72.43
2023-11-07T04:17:36.970Z,72.33
2023-11-07T04:18:36.869Z,72.53
2023-11-07T04:19:36.774Z,72.05
2023-11-07T04:20:36.777Z,72.05
2023-11-07T04:21:36.764Z,72.43
2023-11-07T04:22:36.758Z,72.05
2023-11-07T04:23:36.780Z,72.14
2023-11-07T04:24:36.748Z,72.33
2023-11-07T04:25:36.749Z,72.14
2023-11-07T04:26:36.760Z,72.14
2023-11-07T04:27:36.767Z,72.43
2023-11-07T04:28:36.730Z,72.14
2023-11-07T04:29:36.773Z,72.14
2023-11-07T04:30:36.791Z,72.14
2023-11-07T04:31:36.726Z,72.05
2023-11-07T04:32:36.919Z,72.05
2023-11-07T04:33:36.855Z,72.05
2023-11-07T04:34:36.732Z,72.14
2023-11-07T04:35:36.743Z,72.05
2023-11-07T04:36:36.709Z,72.05
2023-11-07T04:37:36.701Z,72.33
2023-11-07T04:38:36.743Z,72.14
2023-11-07T04:39:36.705Z,72.05
2023-11-07T04:40:36.700Z,72.14
2023-11-07T04:41:36.709Z,72.14
2023-11-07T04:42:36.681Z,72.05
2023-11-07T04:43:37.301Z,72.05
2023-11-07T04:44:36.717Z,71.95
2023-11-07T04:45:36.673Z,72.14
2023-11-07T04:46:36.674Z,72.24
2023-11-07T04:47:36.865Z,71.86
2023-11-07T04:48:36.946Z,72.05
2023-11-07T04:49:36.758Z,72.24
2023-11-07T04:50:36.689Z,72.14
2023-11-07T04:51:36.675Z,71.86
2023-11-07T04:52:36.652Z,72.24
2023-11-07T04:53:36.683Z,72.14
2023-11-07T04:54:36.653Z,72.14
2023-11-07T04:55:36.639Z,72.05
2023-11-07T04:56:36.686Z,72.05
2023-11-07T04:57:36.643Z,71.86
2023-11-07T04:58:56.230Z,72.05
2023-11-07T04:59:36.676Z,72.14
2023-11-07T05:00:36.629Z,72.14
2023-11-07T05:01:36.615Z,72.05
2023-11-07T05:02:36.746Z,71.86
2023-11-07T05:03:41.165Z,72.05
2023-11-07T05:04:36.697Z,72.33
2023-11-07T05:05:36.725Z,72.14
2023-11-07T05:06:36.688Z,72.24
2023-11-07T05:07:36.601Z,72.05
2023-11-07T05:08:36.616Z,72.14
2023-11-07T05:09:36.598Z,72.24
2023-11-07T05:10:36.593Z,72.05
2023-11-07T05:11:36.633Z,72.14
2023-11-07T05:12:36.588Z,72.14
2023-11-07T05:13:36.580Z,72.14
2023-11-07T05:14:36.607Z,72.14
2023-11-07T05:15:36.626Z,72.05
2023-11-07T05:16:36.577Z,72.05
2023-11-07T05:17:36.615Z,72.14
2023-11-07T05:18:36.667Z,72.33
2023-11-07T05:19:36.583Z,72.33
2023-11-07T05:20:36.595Z,72.53
2023-11-07T05:21:36.574Z,72.05
2023-11-07T05:22:36.554Z,72.14
2023-11-07T05:23:36.654Z,72.05
2023-11-07T05:24:36.546Z,72.43
2023-11-07T05:25:36.541Z,72.05
2023-11-07T05:26:36.556Z,72.14
2023-11-07T05:27:36.532Z,72.24
2023-11-07T05:28:36.529Z,72.05
2023-11-07T05:29:36.608Z,72.05
2023-11-07T05:30:36.534Z,72.24
2023-11-07T05:31:36.535Z,72.14
2023-11-07T05:32:36.604Z,72.14
2023-11-07T05:33:36.625Z,72.14
2023-11-07T05:34:36.512Z,72.53
2023-11-07T05:35:36.505Z,71.95
2023-11-07T05:36:36.503Z,71.95
2023-11-07T05:37:36.515Z,72.43
2023-11-07T05:38:36.575Z,72.05
2023-11-07T05:39:36.503Z,72.05
2023-11-07T05:40:36.488Z,72.14
2023-11-07T05:41:36.538Z,72.14
2023-11-07T05:42:36.485Z,72.24
2023-11-07T05:43:36.490Z,72.24
2023-11-07T05:44:36.558Z,72.14
2023-11-07T05:45:36.491Z,72.05
2023-11-07T05:46:36.467Z,72.24
2023-11-07T05:47:36.695Z,71.95
2023-11-07T05:48:36.624Z,71.95
2023-11-07T05:49:36.471Z,71.66
2023-11-07T05:50:36.464Z,71.66
2023-11-07T05:51:36.455Z,71.76
2023-11-07T05:52:36.454Z,72.14
2023-11-07T05:53:36.511Z,71.86
2023-11-07T05:54:36.438Z,71.76
2023-11-07T05:55:36.457Z,71.86
2023-11-07T05:56:36.481Z,71.95
2023-11-07T05:57:36.428Z,71.86
2023-11-07T05:58:36.423Z,71.86
2023-11-07T05:59:36.447Z,71.95
2023-11-07T06:00:36.422Z,72.24
2023-11-07T06:01:36.407Z,71.95
2023-11-07T06:02:36.466Z,72.24
2023-11-07T06:03:36.535Z,71.76
2023-11-07T06:04:36.394Z,72.33
2023-11-07T06:05:36.467Z,71.76
2023-11-07T06:06:36.410Z,72.05
2023-11-07T06:07:36.389Z,71.95
2023-11-07T06:08:36.438Z,71.86
2023-11-07T06:09:36.370Z,72.05
2023-11-07T06:10:36.367Z,72.14
2023-11-07T06:11:36.390Z,71.57
2023-11-07T06:12:36.384Z,71.76
2023-11-07T06:13:36.386Z,71.76
2023-11-07T06:14:36.394Z,71.47
2023-11-07T06:15:36.351Z,71.89
2023-11-07T06:16:36.353Z,71.98
2023-11-07T06:17:36.423Z,71.51
2023-11-07T06:18:36.441Z,71.41
2023-11-07T06:19:36.359Z,71.80
2023-11-07T06:20:36.392Z,71.22
2023-11-07T06:21:36.329Z,71.22
2023-11-07T06:22:36.332Z,71.41
2023-11-07T06:23:36.425Z,71.22
2023-11-07T06:24:36.347Z,71.31
2023-11-07T06:25:36.330Z,71.41
2023-11-07T06:26:36.344Z,71.31
2023-11-07T06:27:36.315Z,71.51
2023-11-07T06:28:36.348Z,71.06
2023-11-07T06:29:36.328Z,71.16
2023-11-07T06:30:36.303Z,70.78
2023-11-07T06:31:36.301Z,71.16
2023-11-07T06:32:36.302Z,70.68
2023-11-07T06:33:36.477Z,70.78
2023-11-07T06:34:36.326Z,70.87
2023-11-07T06:35:36.319Z,70.39
2023-11-07T06:36:36.289Z,70.49
2023-11-07T06:37:36.289Z,70.58
2023-11-07T06:38:36.277Z,70.29
2023-11-07T06:39:36.287Z,70.39
2023-11-07T06:40:36.288Z,70.62
2023-11-07T06:41:36.270Z,69.95
2023-11-07T06:42:36.262Z,70.33
2023-11-07T06:43:36.269Z,69.95
2023-11-07T06:44:36.255Z,70.04
2023-11-07T06:45:36.254Z,69.85
2023-11-07T06:46:36.300Z,69.66
2023-11-07T06:47:36.336Z,69.85
2023-11-07T06:48:36.479Z,69.85
2023-11-07T06:49:36.262Z,69.85
2023-11-07T06:50:36.239Z,69.85
2023-11-07T06:51:36.270Z,69.66
2023-11-07T06:52:36.238Z,69.66
2023-11-07T06:53:36.259Z,69.66
2023-11-07T06:54:36.246Z,69.85
2023-11-07T06:55:36.340Z,69.95
2023-11-07T06:56:36.289Z,69.46
2023-11-07T06:57:36.224Z,70.04
2023-11-07T06:58:36.220Z,70.04
2023-11-07T06:59:36.217Z,69.85
2023-11-07T07:00:36.217Z,70.04
2023-11-07T07:01:36.215Z,70.33
2023-11-07T07:02:36.236Z,70.43
2023-11-07T07:03:36.315Z,70.52
2023-11-07T07:04:36.210Z,70.62
2023-11-07T07:05:36.242Z,70.33
2023-11-07T07:06:36.255Z,70.81
2023-11-07T07:07:36.224Z,70.62
2023-11-07T07:08:36.190Z,70.43
2023-11-07T07:09:36.204Z,70.52
2023-11-07T07:10:36.208Z,70.52
2023-11-07T07:11:36.198Z,70.62
2023-11-07T07:12:36.208Z,70.52
2023-11-07T07:13:36.216Z,71.00
2023-11-07T07:14:36.175Z,70.90
2023-11-07T07:15:36.183Z,70.72
2023-11-07T07:16:36.189Z,70.81
2023-11-07T07:17:36.206Z,70.90
2023-11-07T07:18:36.303Z,70.52
2023-11-07T07:19:36.188Z,70.52
2023-11-07T07:20:36.166Z,71.29
2023-11-07T07:21:36.179Z,71.19
2023-11-07T07:22:36.173Z,71.10
2023-11-07T07:23:36.198Z,70.90
2023-11-07T07:24:36.171Z,70.90
2023-11-07T07:25:36.173Z,71.19
2023-11-07T07:26:36.167Z,71.29
2023-11-07T07:27:36.152Z,71.00
2023-11-07T07:28:36.149Z,71.10
2023-11-07T07:29:36.149Z,71.19
2023-11-07T07:30:36.148Z,71.67
2023-11-07T07:31:36.154Z,71.67
2023-11-07T07:32:36.180Z,71.58
2023-11-07T07:33:36.300Z,71.39
2023-11-07T07:34:36.145Z,71.48
2023-11-07T07:35:36.136Z,71.48
2023-11-07T07:36:36.145Z,71.39
2023-11-07T07:37:36.131Z,71.39
2023-11-07T07:38:36.132Z,71.39
2023-11-07T07:39:40.177Z,71.10
2023-11-07T07:40:36.128Z,71.29
2023-11-07T07:41:36.123Z,71.87
2023-11-07T07:42:36.108Z,71.29
2023-11-07T07:43:36.120Z,71.19
2023-11-07T07:44:36.106Z,71.29
2023-11-07T07:45:36.112Z,71.19
2023-11-07T07:46:36.145Z,71.67
2023-11-07T07:47:36.154Z,71.58
2023-11-07T07:48:36.163Z,71.67
2023-11-07T07:49:36.101Z,71.48
2023-11-07T07:50:36.087Z,71.48
2023-11-07T07:51:36.109Z,71.45
2023-11-07T07:52:36.094Z,71.35
2023-11-07T07:53:36.099Z,71.29
2023-11-07T07:54:56.875Z,71.39
2023-11-07T07:55:38.469Z,71.58
2023-11-07T07:56:36.127Z,71.48
2023-11-07T07:57:36.171Z,71.93
2023-11-07T07:58:36.080Z,71.96
2023-11-07T07:59:36.073Z,71.93
2023-11-07T08:00:36.080Z,71.96
2023-11-07T08:01:36.060Z,71.87
2023-11-07T08:02:36.141Z,71.73
2023-11-07T08:03:36.087Z,71.73
2023-11-07T08:04:36.059Z,71.83
2023-11-07T08:05:36.078Z,71.93
2023-11-07T08:06:36.048Z,71.93
2023-11-07T08:07:36.044Z,71.64
2023-11-07T08:08:36.040Z,71.73
2023-11-07T08:09:36.034Z,71.55
2023-11-07T08:10:36.033Z,71.93
2023-11-07T08:11:36.070Z,71.93
2023-11-07T08:12:36.034Z,72.12
2023-11-07T08:13:36.026Z,71.83
2023-11-07T08:14:36.025Z,72.12
2023-11-07T08:15:36.031Z,72.02
2023-11-07T08:16:36.023Z,71.73
2023-11-07T08:17:36.114Z,72.12
2023-11-07T08:18:36.101Z,72.12
2023-11-07T08:19:36.007Z,72.60
2023-11-07T08:20:36.015Z,72.31
2023-11-07T08:21:36.002Z,72.12
2023-11-07T08:22:36.013Z,71.93
2023-11-07T08:23:36.026Z,72.22
2023-11-07T08:24:35.998Z,72.22
2023-11-07T08:25:36.333Z,71.73
2023-11-07T08:26:36.006Z,71.93
2023-11-07T08:27:36.019Z,71.83
2023-11-07T08:28:35.994Z,71.83
2023-11-07T08:29:35.982Z,72.02
2023-11-07T08:30:35.990Z,71.93
2023-11-07T08:31:35.985Z,72.02
2023-11-07T08:32:36.022Z,71.83
2023-11-07T08:33:36.070Z,71.93
2023-11-07T08:34:36.050Z,71.93
2023-11-07T08:35:35.968Z,72.60
2023-11-07T08:36:35.964Z,72.69
2023-11-07T08:37:35.962Z,72.69
2023-11-07T08:38:35.955Z,72.41
2023-11-07T08:39:35.954Z,72.41
2023-11-07T08:40:35.949Z,72.41
2023-11-07T08:41:35.948Z,72.50
2023-11-07T08:42:35.953Z,72.50
2023-11-07T08:43:35.970Z,72.22
2023-11-07T08:44:35.944Z,72.22
2023-11-07T08:45:35.934Z,72.22
2023-11-07T08:46:35.938Z,72.50
2023-11-07T08:47:35.997Z,72.31
2023-11-07T08:48:36.082Z,72.31
2023-11-07T08:49:35.967Z,72.12
2023-11-07T08:50:35.929Z,72.22
2023-11-07T08:51:35.952Z,72.22
2023-11-07T08:52:35.923Z,72.31
2023-11-07T08:53:36.310Z,72.79
2023-11-07T08:54:35.911Z,72.79
2023-11-07T08:55:35.925Z,72.69
2023-11-07T08:56:35.907Z,72.22
2023-11-07T08:57:35.917Z,72.79
2023-11-07T08:58:35.899Z,72.69
2023-11-07T08:59:35.917Z,72.50
2023-11-07T09:00:36.125Z,72.60
2023-11-07T09:01:35.925Z,72.69
2023-11-07T09:02:35.962Z,72.60
2023-11-07T09:03:35.954Z,72.69
2023-11-07T09:04:35.886Z,72.60
2023-11-07T09:05:35.881Z,72.50
2023-11-07T09:06:38.296Z,72.41
2023-11-07T09:07:35.901Z,72.41
2023-11-07T09:08:35.872Z,72.60
2023-11-07T09:09:35.866Z,72.50
2023-11-07T09:10:35.866Z,72.69
2023-11-07T09:11:35.864Z,72.69
2023-11-07T09:12:35.904Z,72.69
2023-11-07T09:13:35.867Z,72.60
2023-11-07T09:14:35.863Z,72.69
2023-11-07T09:15:35.871Z,72.69
2023-11-07T09:16:35.848Z,72.79
2023-11-07T09:17:36.642Z,72.41
2023-11-07T09:18:35.988Z,72.41
2023-11-07T09:19:35.852Z,72.50
2023-11-07T09:20:35.834Z,72.50
2023-11-07T09:21:35.827Z,72.50
2023-11-07T09:22:35.833Z,72.60
2023-11-07T09:23:35.831Z,72.60
2023-11-07T09:24:35.831Z,72.50
2023-11-07T09:25:35.818Z,72.41
2023-11-07T09:26:35.824Z,72.31
2023-11-07T09:27:35.815Z,72.50
2023-11-07T09:28:35.819Z,72.69
2023-11-07T09:29:35.822Z,72.50
2023-11-07T09:30:35.824Z,72.50
2023-11-07T09:31:35.837Z,72.69
2023-11-07T09:32:35.853Z,72.50
2023-11-07T09:33:35.940Z,72.50
2023-11-07T09:34:35.875Z,72.31
2023-11-07T09:35:35.808Z,72.50
2023-11-07T09:36:35.791Z,72.89
2023-11-07T09:37:35.790Z,72.89
2023-11-07T09:38:46.920Z,72.41
2023-11-07T09:39:35.858Z,72.99
2023-11-07T09:40:35.877Z,72.31
2023-11-07T09:41:35.786Z,72.31
2023-11-07T09:42:35.773Z,72.99
2023-11-07T09:43:35.824Z,72.99
2023-11-07T09:44:35.772Z,72.89
2023-11-07T09:45:35.770Z,72.89
2023-11-07T09:46:35.773Z,72.69
2023-11-07T09:47:35.788Z,72.99
2023-11-07T09:48:35.855Z,72.69
2023-11-07T09:49:35.750Z,72.69
2023-11-07T09:50:35.768Z,72.79
2023-11-07T09:51:35.764Z,72.89
2023-11-07T09:52:35.748Z,72.50
2023-11-07T09:53:35.739Z,72.69
2023-11-07T09:54:35.765Z,72.69
2023-11-07T09:55:36.198Z,72.89
2023-11-07T09:56:35.745Z,72.99
2023-11-07T09:57:35.731Z,72.99
2023-11-07T09:58:35.730Z,72.89
2023-11-07T09:59:35.726Z,72.69
2023-11-07T10:00:35.729Z,72.89
2023-11-07T10:01:35.725Z,72.89
2023-11-07T10:02:35.766Z,72.69
2023-11-07T10:03:35.911Z,72.99
2023-11-07T10:04:36.044Z,72.89
2023-11-07T10:05:35.705Z,72.69
2023-11-07T10:06:35.821Z,72.69
2023-11-07T10:07:35.694Z,72.69
2023-11-07T10:08:35.704Z,72.69
2023-11-07T10:09:35.717Z,72.79
2023-11-07T10:10:35.933Z,72.50
2023-11-07T10:11:35.681Z,72.79
2023-11-07T10:12:35.693Z,72.69
2023-11-07T10:13:35.701Z,72.50
2023-11-07T10:14:35.729Z,72.50
2023-11-07T10:15:35.677Z,72.89
2023-11-07T10:16:35.690Z,72.50
2023-11-07T10:17:35.682Z,72.60
2023-11-07T10:18:35.766Z,72.69
2023-11-07T10:19:35.697Z,72.60
2023-11-07T10:20:35.661Z,72.69
2023-11-07T10:21:35.665Z,72.69
2023-11-07T10:22:35.663Z,72.60
2023-11-07T10:23:35.652Z,72.60
2023-11-07T10:24:35.701Z,72.60
2023-11-07T10:25:35.643Z,72.60
2023-11-07T10:26:35.647Z,72.60
2023-11-07T10:27:35.652Z,72.69
2023-11-07T10:28:35.645Z,72.69
2023-11-07T10:29:40.673Z,72.69
2023-11-07T10:30:35.695Z,72.60
2023-11-07T10:31:35.629Z,72.69
2023-11-07T10:32:35.731Z,72.50
2023-11-07T10:33:36.056Z,72.69
2023-11-07T10:34:35.621Z,72.56
2023-11-07T10:35:35.643Z,72.60
2023-11-07T10:36:35.640Z,72.60
2023-11-07T10:37:35.621Z,72.69
2023-11-07T10:38:35.606Z,72.69
2023-11-07T10:39:35.608Z,72.69
2023-11-07T10:40:37.093Z,72.60
2023-11-07T10:41:35.599Z,72.69
2023-11-07T10:42:35.607Z,72.60
2023-11-07T10:43:35.644Z,72.56
2023-11-07T10:44:35.601Z,72.60
2023-11-07T10:45:35.584Z,73.24
2023-11-07T10:46:35.581Z,73.24
2023-11-07T10:47:35.625Z,72.41
2023-11-07T10:48:35.675Z,72.79
2023-11-07T10:49:35.601Z,72.56
2023-11-07T10:50:35.574Z,73.37
2023-11-07T10:51:35.590Z,72.79
2023-11-07T10:52:35.574Z,72.41
2023-11-07T10:53:35.569Z,72.79
2023-11-07T10:54:35.563Z,72.60
2023-11-07T10:55:35.557Z,72.60
2023-11-07T10:56:35.554Z,72.69
2023-11-07T10:57:37.518Z,72.60
2023-11-07T10:58:35.551Z,72.60
2023-11-07T10:59:35.543Z,72.60
2023-11-07T11:00:35.577Z,72.69
2023-11-07T11:01:35.552Z,72.50
2023-11-07T11:02:35.579Z,72.60
2023-11-07T11:03:35.574Z,72.79
2023-11-07T11:04:35.600Z,72.60
2023-11-07T11:05:35.551Z,72.50
2023-11-07T11:06:35.605Z,72.69
2023-11-07T11:07:35.539Z,72.69
2023-11-07T11:08:35.520Z,72.60
2023-11-07T11:09:35.517Z,72.60
2023-11-07T11:10:35.519Z,72.60
2023-11-07T11:11:35.534Z,72.69
2023-11-07T11:12:35.506Z,72.69
2023-11-07T11:13:35.503Z,72.69
2023-11-07T11:14:35.525Z,72.69
2023-11-07T11:15:35.518Z,72.69
2023-11-07T11:16:35.504Z,72.60
2023-11-07T11:17:35.514Z,72.85
2023-11-07T11:18:35.584Z,72.89
2023-11-07T11:19:35.720Z,73.37
2023-11-07T11:20:35.483Z,72.99
2023-11-07T11:21:35.490Z,73.18
2023-11-07T11:22:35.485Z,72.99
2023-11-07T11:23:35.499Z,72.99
2023-11-07T11:24:35.496Z,73.18
2023-11-07T11:25:35.468Z,73.08
2023-11-07T11:26:35.474Z,72.79
2023-11-07T11:27:35.490Z,72.89
2023-11-07T11:28:35.472Z,72.79
2023-11-07T11:29:35.453Z,72.89
2023-11-07T11:30:35.509Z,72.99
2023-11-07T11:31:35.457Z,72.99
2023-11-07T11:32:35.578Z,72.89
2023-11-07T11:33:37.459Z,72.89
2023-11-07T11:34:35.477Z,72.99
2023-11-07T11:35:35.448Z,73.18
2023-11-07T11:36:35.457Z,72.99
2023-11-07T11:37:35.434Z,73.08
2023-11-07T11:38:35.430Z,73.08
2023-11-07T11:39:35.479Z,73.08
2023-11-07T11:40:35.429Z,72.99
2023-11-07T11:41:35.424Z,72.99
2023-11-07T11:42:35.419Z,73.08
2023-11-07T11:43:35.530Z,73.18
2023-11-07T11:44:35.412Z,72.99
2023-11-07T11:45:44.226Z,72.99
2023-11-07T11:46:35.409Z,73.08
2023-11-07T11:47:35.479Z,72.89
2023-11-07T11:48:35.481Z,72.99
2023-11-07T11:49:35.401Z,73.27
2023-11-07T11:50:35.392Z,72.99
2023-11-07T11:51:35.408Z,72.99
2023-11-07T11:52:35.428Z,72.89
2023-11-07T11:53:35.398Z,72.99
2023-11-07T11:54:35.394Z,72.99
2023-11-07T11:55:35.420Z,72.99
2023-11-07T11:56:35.401Z,72.89
2023-11-07T11:57:35.370Z,72.89
2023-11-07T11:58:35.370Z,72.89
2023-11-07T11:59:35.375Z,72.89
2023-11-07T12:00:35.401Z,72.99
2023-11-07T12:01:35.391Z,73.08
2023-11-07T12:02:35.373Z,72.79
2023-11-07T12:03:35.482Z,73.18
2023-11-07T12:04:35.426Z,73.37
2023-11-07T12:05:35.350Z,72.89
2023-11-07T12:06:35.491Z,72.99
2023-11-07T12:07:35.392Z,72.89
2023-11-07T12:08:35.342Z,73.08
2023-11-07T12:09:35.352Z,73.08
2023-11-07T12:10:35.338Z,73.08
2023-11-07T12:11:45.102Z,73.08
2023-11-07T12:12:37.102Z,73.08
2023-11-07T12:13:35.336Z,72.89
2023-11-07T12:14:35.332Z,73.08
2023-11-07T12:15:35.351Z,72.99
2023-11-07T12:16:35.322Z,73.27
2023-11-07T12:17:35.348Z,73.27
2023-11-07T12:18:35.474Z,73.46
2023-11-07T12:19:35.337Z,73.27
2023-11-07T12:20:35.307Z,73.46
2023-11-07T12:21:35.307Z,73.46
2023-11-07T12:22:35.342Z,72.99
2023-11-07T12:23:35.344Z,73.46
2023-11-07T12:24:35.301Z,73.08
2023-11-07T12:25:35.324Z,72.99
2023-11-07T12:26:35.290Z,72.99
2023-11-07T12:27:35.315Z,73.27
2023-11-07T12:28:35.288Z,72.89
2023-11-07T12:29:35.284Z,72.99
2023-11-07T12:30:35.302Z,72.89
2023-11-07T12:31:35.286Z,72.99
2023-11-07T12:32:35.286Z,72.99
2023-11-07T12:33:35.497Z,73.18
2023-11-07T12:34:35.330Z,72.99
2023-11-07T12:35:35.275Z,73.08
2023-11-07T12:36:35.288Z,72.99
2023-11-07T12:37:35.277Z,73.18
2023-11-07T12:38:35.263Z,73.08
2023-11-07T12:39:35.269Z,73.08
2023-11-07T12:40:35.248Z,72.99
2023-11-07T12:41:35.246Z,72.99
2023-11-07T12:42:35.254Z,73.18
2023-11-07T12:43:35.267Z,73.18
2023-11-07T12:44:35.241Z,72.99
2023-11-07T12:45:35.251Z,73.08
2023-11-07T12:46:35.230Z,72.99
2023-11-07T12:47:35.302Z,73.08
2023-11-07T12:48:35.305Z,72.89
2023-11-07T12:49:35.230Z,73.18
2023-11-07T12:50:35.221Z,72.99
2023-11-07T12:51:35.231Z,73.27
2023-11-07T12:52:35.218Z,72.99